Time;durP1;ratioP1;P1;durP2;ratioP2;P2;SDS_P1;SDS_P2;PMS_P1;PMS_P2;Temp;Humidity;BMP_temperature;BMP_pressure;BME280_temperature;BME280_humidity;BME280_pressure;Samples;Min_cycle;Max_cycle;Signal;HPM_P1;HPM_P2
2024/03/25 00:09:48;;;;;;;;;;;5.90;99.90;;;;;;6714242;88;20165;-79
2024/03/25 00:19:52;;;;;;;;;;;5.90;99.90;;;;;;6710562;88;20051;-79
2024/03/25 00:29:52;;;;;;;;;;;5.90;99.90;;;;;;6712847;88;20047;-79
2024/03/25 00:39:53;;;;;;;;;;;5.70;99.90;;;;;;6708122;88;20089;-79
2024/03/25 00:49:54;;;;;;;;;;;5.50;99.90;;;;;;6703446;88;20928;-79
2024/03/25 00:59:54;;;;;;;;;;;5.40;99.90;;;;;;6704612;88;20561;-79
2024/03/25 01:09:54;;;;;;;;;;;5.40;99.90;;;;;;6708858;88;20106;-80
2024/03/25 01:19:55;;;;;;;;;;;5.30;99.90;;;;;;6701339;88;20066;-78
2024/03/25 01:29:55;;;;;;;;;;;5.20;99.90;;;;;;6702960;88;20223;-79
2024/03/25 01:39:56;;;;;;;;;;;5.20;99.90;;;;;;6707893;88;20093;-78
2024/03/25 01:49:56;;;;;;;;;;;5.30;99.90;;;;;;6705391;88;20054;-78
2024/03/25 01:59:57;;;;;;;;;;;5.30;99.90;;;;;;6704101;88;20773;-79
2024/03/25 02:09:57;;;;;;;;;;;5.30;99.90;;;;;;6702220;88;20068;-78
2024/03/25 02:19:58;;;;;;;;;;;5.30;99.90;;;;;;6702640;88;20566;-78
2024/03/25 02:30:17;;;;;;;;;;;5.30;99.90;;;;;;6703540;88;20640;-78
2024/03/25 02:40:18;;;;;;;;;;;5.30;99.90;;;;;;6686180;88;20171;-77
2024/03/25 02:50:19;;;;;;;;;;;5.20;99.90;;;;;;6688891;88;20070;-80
2024/03/25 03:00:19;;;;;;;;;;;5.20;99.90;;;;;;6696275;88;20113;-78
2024/03/25 03:10:19;;;;;;;;;;;4.90;99.90;;;;;;6691015;88;20066;-77
2024/03/25 03:20:20;;;;;;;;;;;4.80;99.90;;;;;;6689495;88;20055;-77
2024/03/25 03:30:21;;;;;;;;;;;4.70;99.90;;;;;;6694890;88;20095;-79
2024/03/25 03:40:21;;;;;;;;;;;4.60;99.90;;;;;;6687928;88;20089;-79
2024/03/25 03:50:22;;;;;;;;;;;4.50;99.90;;;;;;6683065;88;20107;-78
2024/03/25 04:00:22;;;;;;;;;;;4.40;99.90;;;;;;6688695;88;20105;-78
2024/03/25 04:10:23;;;;;;;;;;;4.50;99.90;;;;;;6688379;88;20060;-78
2024/03/25 04:20:23;;;;;;;;;;;4.40;99.90;;;;;;6687344;88;20175;-77
2024/03/25 04:30:24;;;;;;;;;;;4.40;99.90;;;;;;6686916;88;20085;-77
2024/03/25 04:40:24;;;;;;;;;;;4.40;99.90;;;;;;6687174;88;20069;-79
2024/03/25 04:50:25;;;;;;;;;;;4.30;99.90;;;;;;6688267;88;22285;-78
2024/03/25 05:00:26;;;;;;;;;;;4.30;99.90;;;;;;6703944;88;20059;-77
2024/03/25 05:10:26;;;;;;;;;;;4.10;99.90;;;;;;6700310;88;20084;-77
2024/03/25 05:20:27;;;;;;;;;;;4.00;99.90;;;;;;6708850;88;20198;-77
2024/03/25 05:30:28;;;;;;;;;;;3.90;99.90;;;;;;6702615;88;20551;-78
2024/03/25 05:40:28;;;;;;;;;;;3.90;99.90;;;;;;6703864;88;20492;-78
2024/03/25 05:50:29;;;;;;;;;;;3.90;99.90;;;;;;6699674;88;20121;-78
2024/03/25 06:00:30;;;;;;;;;;;3.80;99.90;;;;;;6703029;88;20194;-79
2024/03/25 06:10:34;;;;;;;;;;;3.50;99.90;;;;;;6714259;88;20066;-79
2024/03/25 06:20:35;;;;;;;;;;;3.70;99.90;;;;;;6719405;88;20063;-79
2024/03/25 06:40:55;;;;;;;;;;;3.80;99.90;;;;;;6713208;88;20492;-79
2024/03/25 06:50:56;;;;;;;;;;;4.10;99.90;;;;;;6705575;88;20187;-78
2024/03/25 07:00:56;;;;;;;;;;;4.50;99.90;;;;;;6710793;88;20584;-78
2024/03/25 07:10:57;;;;;;;;;;;5.00;99.90;;;;;;6714246;88;20072;-78
2024/03/25 07:20:57;;;;;;;;;;;5.50;99.90;;;;;;6706933;88;20640;-78
2024/03/25 07:30:58;;;;;;;;;;;6.20;99.90;;;;;;6711727;77;20066;-76
2024/03/25 07:41:03;;;;;;;;;;;6.50;99.90;;;;;;6712911;88;20051;-76
2024/03/25 07:51:03;;;;;;;;;;;7.00;99.90;;;;;;6718222;88;20229;-75
2024/03/25 08:01:04;;;;;;;;;;;6.90;99.90;;;;;;6715951;88;20425;-76
2024/03/25 08:11:04;;;;;;;;;;;7.30;99.90;;;;;;6718424;88;20056;-78
2024/03/25 08:21:05;;;;;;;;;;;8.20;99.90;;;;;;6717075;88;20059;-77
2024/03/25 08:31:05;;;;;;;;;;;8.80;99.90;;;;;;6716748;88;20543;-76
2024/03/25 08:41:05;;;;;;;;;;;9.10;99.90;;;;;;6715831;88;20059;-76
2024/03/25 08:51:07;;;;;;;;;;;9.70;99.90;;;;;;6716556;88;20066;-76
2024/03/25 09:01:09;;;;;;;;;;;9.30;99.90;;;;;;6712634;88;20141;-76
2024/03/25 09:11:09;;;;;;;;;;;10.00;99.90;;;;;;6709962;88;20080;-76
2024/03/25 09:21:10;;;;;;;;;;;10.70;99.90;;;;;;6717907;88;20043;-77
2024/03/25 09:31:11;;;;;;;;;;;11.40;99.90;;;;;;6717556;88;20512;-76
2024/03/25 09:41:11;;;;;;;;;;;11.50;99.90;;;;;;6715904;88;20112;-77
2024/03/25 09:51:12;;;;;;;;;;;12.10;99.90;;;;;;6716466;88;20120;-76
2024/03/25 10:01:12;;;;;;;;;;;12.40;99.90;;;;;;6718427;88;20180;-77
2024/03/25 10:11:13;;;;;;;;;;;12.20;99.90;;;;;;6714962;88;20067;-77
2024/03/25 10:21:14;;;;;;;;;;;12.70;99.90;;;;;;6730995;88;20056;-77
2024/03/25 10:31:17;;;;;;;;;;;13.70;99.90;;;;;;6718744;88;20067;-76
2024/03/25 10:41:18;;;;;;;;;;;14.30;99.90;;;;;;6718876;88;20123;-77
2024/03/25 10:51:20;;;;;;;;;;;14.60;99.90;;;;;;6719523;88;20130;-76
2024/03/25 11:01:22;;;;;;;;;;;14.60;99.90;;;;;;6717416;88;20078;-77
2024/03/25 11:11:22;;;;;;;;;;;15.80;99.90;;;;;;6721446;88;20089;-77
2024/03/25 11:21:26;;;;;;;;;;;14.20;99.90;;;;;;6727284;88;20484;-77
2024/03/25 11:31:27;;;;;;;;;;;13.10;99.90;;;;;;6725336;88;20084;-78
2024/03/25 11:41:28;;;;;;;;;;;14.40;99.30;;;;;;6718777;88;20055;-78
2024/03/25 11:51:28;;;;;;;;;;;14.80;98.20;;;;;;6722797;88;20193;-78
2024/03/25 12:01:29;;;;;;;;;;;14.60;97.90;;;;;;6729122;88;20062;-78
2024/03/25 12:11:30;;;;;;;;;;;15.10;98.00;;;;;;6721909;88;20082;-78
2024/03/25 12:21:31;;;;;;;;;;;14.90;97.70;;;;;;6715574;88;20494;-79
2024/03/25 12:31:31;;;;;;;;;;;15.40;96.90;;;;;;6720541;88;20103;-79
2024/03/25 12:41:33;;;;;;;;;;;17.30;95.40;;;;;;6718695;88;20075;-77
2024/03/25 12:51:33;;;;;;;;;;;16.10;95.30;;;;;;6714672;88;20562;-78
2024/03/25 13:01:34;;;;;;;;;;;14.50;96.00;;;;;;6717835;88;20062;-76
2024/03/25 13:11:35;;;;;;;;;;;14.20;98.00;;;;;;6716183;88;20052;-77
2024/03/25 13:21:35;;;;;;;;;;;14.70;96.70;;;;;;6718114;88;20525;-77
2024/03/25 13:41:39;;;;;;;;;;;15.70;95.50;;;;;;6764614;88;20174;-80
2024/03/25 13:51:39;;;;;;;;;;;16.10;94.60;;;;;;6748260;88;20547;-80
2024/03/25 14:01:40;;;;;;;;;;;16.30;93.60;;;;;;6754053;88;20081;-78
2024/03/25 14:11:41;;;;;;;;;;;15.40;92.90;;;;;;6755761;88;20073;-78
2024/03/25 14:21:41;;;;;;;;;;;15.70;93.30;;;;;;6756222;87;20023;-80
2024/03/25 14:31:42;;;;;;;;;;;16.90;92.00;;;;;;6758308;88;20066;-78
2024/03/25 14:41:42;;;;;;;;;;;15.90;92.10;;;;;;6760312;88;20076;-79
2024/03/25 14:51:43;;;;;;;;;;;17.00;91.30;;;;;;6763758;88;20076;-79
2024/03/25 15:01:43;;;;;;;;;;;17.30;92.10;;;;;;6757911;88;20061;-80
2024/03/25 15:11:43;;;;;;;;;;;16.90;91.70;;;;;;6755239;88;20066;-80
2024/03/25 15:21:46;;;;;;;;;;;16.00;91.80;;;;;;6756729;88;20065;-79
2024/03/25 15:31:47;;;;;;;;;;;15.70;92.30;;;;;;6751792;87;20734;-79
2024/03/25 15:41:49;;;;;;;;;;;15.00;92.70;;;;;;6749665;88;20082;-78
2024/03/25 15:51:50;;;;;;;;;;;14.70;91.90;;;;;;6737005;88;20090;-78
2024/03/25 16:01:50;;;;;;;;;;;14.90;91.60;;;;;;6742159;88;20123;-78
2024/03/25 16:11:51;;;;;;;;;;;14.20;90.40;;;;;;6742436;88;20087;-78
2024/03/25 16:21:51;;;;;;;;;;;14.30;90.60;;;;;;6742035;88;20105;-79
2024/03/25 16:31:52;;;;;;;;;;;14.30;90.10;;;;;;6742521;88;20085;-78
2024/03/25 16:41:52;;;;;;;;;;;14.30;91.30;;;;;;6747872;88;20138;-79
2024/03/25 16:51:53;;;;;;;;;;;13.60;91.60;;;;;;6738777;88;20059;-79
2024/03/25 17:01:56;;;;;;;;;;;13.00;92.50;;;;;;6738200;88;20407;-77
2024/03/25 17:11:56;;;;;;;;;;;12.90;92.90;;;;;;6734432;88;20051;-78
2024/03/25 17:21:57;;;;;;;;;;;12.40;93.40;;;;;;6745906;88;20635;-78
2024/03/25 17:31:58;;;;;;;;;;;12.10;94.00;;;;;;6734431;88;20050;-78
2024/03/25 17:41:58;;;;;;;;;;;12.00;94.80;;;;;;6736863;88;20113;-77
2024/03/25 17:51:59;;;;;;;;;;;11.80;95.20;;;;;;6737974;88;20070;-79
2024/03/25 18:01:59;;;;;;;;;;;11.40;95.90;;;;;;6742043;88;20183;-79
2024/03/25 18:11:59;;;;;;;;;;;11.10;95.80;;;;;;6746859;88;20113;-77
2024/03/25 18:22:00;;;;;;;;;;;10.90;96.20;;;;;;6745497;88;20549;-78
2024/03/25 18:32:01;;;;;;;;;;;10.70;96.60;;;;;;6742725;88;20113;-80
2024/03/25 18:42:01;;;;;;;;;;;10.50;96.70;;;;;;6746153;88;20265;-79
2024/03/25 18:52:03;;;;;;;;;;;10.40;96.90;;;;;;6747571;88;20079;-78
2024/03/25 19:02:04;;;;;;;;;;;10.20;97.20;;;;;;6752594;88;20198;-80
2024/03/25 19:12:04;;;;;;;;;;;10.00;97.80;;;;;;6759839;88;20085;-78
2024/03/25 19:22:05;;;;;;;;;;;9.90;97.40;;;;;;6759514;88;20090;-78
2024/03/25 19:32:05;;;;;;;;;;;9.70;97.70;;;;;;6754329;76;20074;-77
2024/03/25 19:42:06;;;;;;;;;;;9.60;98.20;;;;;;6733480;88;20055;-76
2024/03/25 19:52:07;;;;;;;;;;;9.40;98.40;;;;;;6735193;88;20099;-77
2024/03/25 20:02:08;;;;;;;;;;;9.10;99.00;;;;;;6732191;88;20097;-77
2024/03/25 20:12:08;;;;;;;;;;;8.90;99.50;;;;;;6737756;88;20170;-78
2024/03/25 20:22:09;;;;;;;;;;;8.90;99.90;;;;;;6747800;88;20219;-76
2024/03/25 20:32:09;;;;;;;;;;;8.70;99.90;;;;;;6732472;88;20815;-77
2024/03/25 20:42:10;;;;;;;;;;;8.50;99.90;;;;;;6727009;88;20067;-77
2024/03/25 20:52:11;;;;;;;;;;;8.40;99.90;;;;;;6722570;88;20055;-77
2024/03/25 21:02:11;;;;;;;;;;;8.30;99.90;;;;;;6734683;88;20485;-78
2024/03/25 21:12:12;;;;;;;;;;;8.30;99.80;;;;;;6736329;88;20082;-79
2024/03/25 21:22:12;;;;;;;;;;;8.30;99.10;;;;;;6734082;88;20072;-76
2024/03/25 21:32:13;;;;;;;;;;;8.30;99.10;;;;;;6734997;87;20054;-76
2024/03/25 21:42:13;;;;;;;;;;;8.10;99.80;;;;;;6734521;88;20067;-76
2024/03/25 21:52:14;;;;;;;;;;;8.10;99.30;;;;;;6742664;88;20066;-79
2024/03/25 22:02:14;;;;;;;;;;;7.90;99.60;;;;;;6742810;88;20067;-78
2024/03/25 22:12:16;;;;;;;;;;;7.70;99.90;;;;;;6757193;88;20054;-78
2024/03/25 22:22:16;;;;;;;;;;;7.50;99.90;;;;;;6755796;87;20089;-78
2024/03/25 22:32:17;;;;;;;;;;;7.50;99.90;;;;;;6746707;88;20389;-80
2024/03/25 22:42:17;;;;;;;;;;;7.40;99.90;;;;;;6744651;88;20076;-78
2024/03/25 22:52:18;;;;;;;;;;;7.30;99.90;;;;;;6738727;88;20070;-76
2024/03/25 23:02:19;;;;;;;;;;;7.20;99.90;;;;;;6740477;88;20094;-77
2024/03/25 23:12:19;;;;;;;;;;;7.00;99.90;;;;;;6739578;88;20171;-76
2024/03/25 23:22:20;;;;;;;;;;;6.80;99.90;;;;;;6740698;88;20165;-76
2024/03/25 23:32:21;;;;;;;;;;;6.70;99.90;;;;;;6743281;88;20073;-76
2024/03/25 23:42:21;;;;;;;;;;;6.70;99.90;;;;;;6741796;88;20072;-76
2024/03/25 23:52:22;;;;;;;;;;;6.30;99.90;;;;;;6746837;88;20054;-76
